Weather at Kalimarau Airport

Public forecast

Using degrees Celsius for public forecast. Weather courtesy of forecast.io.

Closest aviation weather report (METAR) to Kalimarau Airport

Closest report is Bintulu Airport, 270.9 nm (501.8 km) WNW.

2024/07/24 15:00 (retrieved 57 minutes ago)

WBGB 241500Z 00000KT 9999 FEW016 27/26 Q1008

Closest aviation forecast (TAF) to Kalimarau Airport

Closest forecast is Bintulu Airport, 270.9 nm (501.8 km) WNW.

2024/07/24 12:00 (retrieved 4 hours ago)

TAF WBGB 241100Z 2412/2512 30005KT 9999 FEW016 TEMPO 2417/2420 5000 TSRA FEW015CB